createdAt,value
2023-03-29T00:03:33.568Z,27.38
2023-03-29T00:07:33.566Z,27.40
2023-03-29T00:11:33.487Z,27.40
2023-03-29T00:15:33.500Z,27.35
2023-03-29T00:19:33.567Z,27.36
2023-03-29T00:23:33.478Z,27.36
2023-03-29T00:27:33.482Z,27.36
2023-03-29T00:31:33.544Z,27.36
2023-03-29T00:35:33.618Z,27.32
2023-03-29T00:39:33.481Z,27.33
2023-03-29T00:43:33.491Z,27.36
2023-03-29T00:47:33.530Z,27.37
2023-03-29T00:51:33.507Z,27.33
2023-03-29T00:55:33.510Z,27.33
2023-03-29T00:59:33.503Z,27.34
2023-03-29T01:03:33.563Z,27.33
2023-03-29T01:07:33.506Z,27.34
2023-03-29T01:11:33.517Z,27.30
2023-03-29T01:15:33.554Z,27.38
2023-03-29T01:19:33.530Z,27.34
2023-03-29T01:23:33.531Z,27.35
2023-03-29T01:27:33.514Z,27.34
2023-03-29T01:31:33.592Z,27.36
2023-03-29T01:35:33.606Z,27.34
2023-03-29T01:39:33.572Z,27.35
2023-03-29T01:43:33.582Z,27.35
2023-03-29T01:47:33.632Z,27.37
2023-03-29T01:51:33.636Z,27.38
2023-03-29T01:55:33.679Z,27.34
2023-03-29T01:59:33.656Z,27.41
2023-03-29T02:03:33.810Z,27.43
2023-03-29T02:07:33.661Z,27.42
2023-03-29T02:11:33.707Z,27.42
2023-03-29T02:15:33.815Z,27.42
2023-03-29T02:19:33.727Z,27.38
2023-03-29T02:23:33.741Z,27.45
2023-03-29T02:27:33.772Z,27.45
2023-03-29T02:31:33.834Z,27.55
2023-03-29T02:35:33.832Z,27.46
2023-03-29T02:39:33.874Z,27.52
2023-03-29T02:43:33.888Z,27.49
2023-03-29T02:47:33.949Z,27.49
2023-03-29T02:51:33.967Z,27.53
2023-03-29T02:55:33.980Z,27.50
2023-03-29T02:59:34.020Z,27.52
2023-03-29T03:03:34.182Z,27.57
2023-03-29T03:07:34.094Z,27.59
2023-03-29T03:11:34.129Z,27.60
2023-03-29T03:15:34.226Z,27.57
2023-03-29T03:19:34.238Z,27.59
2023-03-29T03:23:34.295Z,27.61
2023-03-29T03:27:34.328Z,27.63
2023-03-29T03:31:34.457Z,27.63
2023-03-29T03:35:34.449Z,27.67
2023-03-29T03:39:35.152Z,27.67
2023-03-29T03:43:34.577Z,27.63
2023-03-29T03:47:34.649Z,27.66
2023-03-29T03:51:34.681Z,27.66
2023-03-29T03:55:34.751Z,27.69
2023-03-29T03:59:34.888Z,27.69
2023-03-29T04:03:35.025Z,27.72
2023-03-29T04:07:34.978Z,27.68
2023-03-29T04:11:35.036Z,27.75
2023-03-29T04:15:35.144Z,27.78
2023-03-29T04:19:35.188Z,27.84
2023-03-29T04:23:35.267Z,27.75
2023-03-29T04:27:35.352Z,27.82
2023-03-29T04:31:35.457Z,27.80
2023-03-29T04:35:35.549Z,27.82
2023-03-29T04:39:35.576Z,27.85
2023-03-29T04:43:36.826Z,27.89
2023-03-29T04:47:35.650Z,27.81
2023-03-29T04:51:35.584Z,27.85
2023-03-29T04:55:35.542Z,27.80
2023-03-29T04:59:35.501Z,27.83
2023-03-29T05:03:35.463Z,27.82
2023-03-29T05:07:35.432Z,27.76
2023-03-29T05:11:35.411Z,27.82
2023-03-29T05:15:35.367Z,27.78
2023-03-29T05:19:35.298Z,27.78
2023-03-29T05:23:35.275Z,27.81
2023-03-29T05:27:35.263Z,27.80
2023-03-29T05:31:35.271Z,27.82
2023-03-29T05:35:35.212Z,27.81
2023-03-29T05:39:37.562Z,27.84
2023-03-29T05:43:35.121Z,27.81
2023-03-29T05:47:35.083Z,27.81
2023-03-29T05:51:35.200Z,27.85
2023-03-29T05:55:35.268Z,27.85
2023-03-29T05:59:34.965Z,27.87
2023-03-29T06:03:35.032Z,27.85
2023-03-29T06:07:35.375Z,27.89
2023-03-29T06:11:34.844Z,27.85
2023-03-29T06:15:34.811Z,27.88
2023-03-29T06:19:34.814Z,27.88
2023-03-29T06:23:34.756Z,27.92
2023-03-29T06:27:35.196Z,27.94
2023-03-29T06:31:34.678Z,27.94
2023-03-29T06:35:34.674Z,27.93
2023-03-29T06:39:34.588Z,27.95
2023-03-29T06:43:34.602Z,27.94
2023-03-29T06:47:34.775Z,27.97
2023-03-29T06:51:34.482Z,27.99
2023-03-29T06:55:34.461Z,28.16
2023-03-29T06:59:35.038Z,28.21
2023-03-29T07:03:34.745Z,28.36
2023-03-29T07:07:34.343Z,28.46
2023-03-29T07:11:34.302Z,28.21
2023-03-29T07:15:34.763Z,27.64
2023-03-29T07:19:34.214Z,27.75
2023-03-29T07:23:34.218Z,27.69
2023-03-29T07:27:34.124Z,27.88
2023-03-29T07:31:34.215Z,27.88
2023-03-29T07:35:34.245Z,27.93
2023-03-29T07:39:34.245Z,27.93
2023-03-29T07:43:34.006Z,28.37
2023-03-29T07:47:34.263Z,29.47
2023-03-29T07:51:34.231Z,31.17
2023-03-29T07:55:34.021Z,31.43
2023-03-29T07:59:34.756Z,31.94
2023-03-29T08:03:34.152Z,32.70
2023-03-29T08:07:34.120Z,32.95
2023-03-29T08:11:34.152Z,34.20
2023-03-29T08:15:34.154Z,34.67
2023-03-29T08:19:34.160Z,34.79
2023-03-29T08:23:34.196Z,35.29
2023-03-29T08:27:34.232Z,35.55
2023-03-29T08:31:34.338Z,35.75
2023-03-29T08:35:34.501Z,36.09
2023-03-29T08:39:34.844Z,28.34
2023-03-29T08:43:34.575Z,27.73
2023-03-29T08:47:34.871Z,28.98
2023-03-29T08:51:34.755Z,30.47
2023-03-29T08:55:34.856Z,31.76
2023-03-29T08:59:34.953Z,32.21
2023-03-29T09:03:35.060Z,31.98
2023-03-29T09:07:35.246Z,31.93
2023-03-29T09:11:35.357Z,32.00
2023-03-29T09:15:35.773Z,32.32
2023-03-29T09:19:35.531Z,32.71
2023-03-29T09:23:35.749Z,32.83
2023-03-29T09:27:35.519Z,33.31
2023-03-29T09:31:35.577Z,33.92
2023-03-29T10:08:50.533Z,38.03
2023-03-29T10:12:50.499Z,36.19
2023-03-29T10:16:50.607Z,35.22
2023-03-29T10:20:50.734Z,34.62
2023-03-29T10:24:50.793Z,34.15
2023-03-29T10:28:50.828Z,33.54
2023-03-29T10:32:51.353Z,33.27
2023-03-29T10:36:51.218Z,33.35
2023-03-29T10:40:51.255Z,33.07
2023-03-29T10:44:51.060Z,32.94
2023-03-29T10:48:51.198Z,32.51
2023-03-29T10:52:51.233Z,33.51
2023-03-29T10:56:52.478Z,33.65
2023-03-29T11:00:51.417Z,32.61
2023-03-29T11:04:51.375Z,32.17
2023-03-29T11:08:51.310Z,31.43
2023-03-29T11:12:51.462Z,31.11
2023-03-29T11:16:51.751Z,30.74
2023-03-29T11:20:51.207Z,30.50
2023-03-29T11:24:51.193Z,30.26
2023-03-29T11:28:51.299Z,30.32
2023-03-29T11:32:51.300Z,30.40
2023-03-29T11:36:51.295Z,30.22
2023-03-29T11:40:50.998Z,30.21
2023-03-29T11:44:52.243Z,30.08
2023-03-29T11:48:50.956Z,29.70
2023-03-29T11:52:51.032Z,30.07
2023-03-29T11:56:50.939Z,30.00
2023-03-29T12:00:50.859Z,30.00
2023-03-29T12:04:50.804Z,31.12
2023-03-29T12:09:50.894Z,32.25
2023-03-29T12:13:50.837Z,32.81
2023-03-29T12:17:50.877Z,32.99
2023-03-29T12:21:50.747Z,32.91
2023-03-29T12:25:50.699Z,33.14
2023-03-29T12:29:50.686Z,33.62
2023-03-29T12:33:50.650Z,34.11
2023-03-29T12:37:50.627Z,34.47
2023-03-29T12:41:50.596Z,34.90
2023-03-29T12:45:50.585Z,35.27
2023-03-29T12:49:50.538Z,35.73
2023-03-29T12:53:50.655Z,36.25
2023-03-29T12:57:50.816Z,36.65
2023-03-29T13:01:51.054Z,36.69
2023-03-29T13:05:51.168Z,36.91
2023-03-29T13:09:51.274Z,37.74
2023-03-29T13:13:51.406Z,37.45
2023-03-29T13:17:51.577Z,38.16
2023-03-29T13:21:51.745Z,37.97
2023-03-29T13:25:51.939Z,38.62
2023-03-29T13:29:52.210Z,38.92
2023-03-29T13:33:52.110Z,39.16
2023-03-29T13:37:52.085Z,39.55
2023-03-29T13:41:52.059Z,39.50
2023-03-29T13:45:52.011Z,39.83
2023-03-29T13:49:51.992Z,39.51
2023-03-29T13:53:51.945Z,39.22
2023-03-29T13:57:51.912Z,38.95
2023-03-29T14:01:51.920Z,38.69
2023-03-29T14:05:51.845Z,38.57
2023-03-29T14:09:51.806Z,38.49
2023-03-29T14:13:51.752Z,38.36
2023-03-29T14:17:51.747Z,38.42
2023-03-29T14:21:52.161Z,38.27
2023-03-29T14:25:51.663Z,37.81
2023-03-29T14:29:51.707Z,37.59
2023-03-29T14:33:51.821Z,38.26
2023-03-29T14:37:51.926Z,38.62
2023-03-29T14:41:51.971Z,38.61
2023-03-29T14:45:52.060Z,38.63
2023-03-29T14:49:51.985Z,38.55
2023-03-29T14:53:51.981Z,38.43
2023-03-29T14:57:51.965Z,38.24
2023-03-29T15:01:52.041Z,38.13
2023-03-29T15:05:52.064Z,37.98
2023-03-29T15:09:52.049Z,37.76
2023-03-29T15:13:52.090Z,37.68
2023-03-29T15:17:52.778Z,37.54
2023-03-29T15:21:52.190Z,37.45
2023-03-29T15:25:52.282Z,37.28
2023-03-29T15:29:52.373Z,37.15
2023-03-29T15:33:52.485Z,37.06
2023-03-29T15:37:52.490Z,36.93
2023-03-29T15:41:52.637Z,36.85
2023-03-29T15:45:52.677Z,36.71
2023-03-29T15:49:52.751Z,36.67
2023-03-29T15:53:52.834Z,36.54
2023-03-29T15:57:53.016Z,36.57
2023-03-29T16:01:53.066Z,36.52
2023-03-29T16:05:53.103Z,36.45
2023-03-29T16:09:53.215Z,36.41
2023-03-29T16:13:53.355Z,36.37
2023-03-29T16:17:53.658Z,36.27
2023-03-29T16:21:53.525Z,36.23
2023-03-29T16:25:53.646Z,36.23
2023-03-29T16:29:53.758Z,36.21
2023-03-29T16:33:53.886Z,36.14
2023-03-29T16:37:53.988Z,36.05
2023-03-29T16:41:54.115Z,35.98
2023-03-29T16:45:54.302Z,35.99
2023-03-29T16:49:54.360Z,35.94
2023-03-29T16:53:54.490Z,35.93
2023-03-29T16:57:54.645Z,35.85
2023-03-29T17:01:54.815Z,35.89
2023-03-29T17:05:54.971Z,35.77
2023-03-29T17:09:55.116Z,35.76
2023-03-29T17:13:55.223Z,35.76
2023-03-29T17:17:55.351Z,35.73
2023-03-29T17:21:55.459Z,35.73
2023-03-29T17:25:55.634Z,35.69
2023-03-29T17:29:55.807Z,35.66
2023-03-29T17:33:55.939Z,35.65
2023-03-29T17:37:56.144Z,35.66
2023-03-29T17:41:56.291Z,35.65
2023-03-29T17:45:56.463Z,35.65
2023-03-29T17:49:56.626Z,35.65
2023-03-29T17:53:56.776Z,35.61
2023-03-29T17:57:56.986Z,35.55
2023-03-29T18:01:57.187Z,35.54
2023-03-29T18:05:57.289Z,35.51
2023-03-29T18:09:57.456Z,35.51
2023-03-29T18:13:57.624Z,35.45
2023-03-29T18:17:57.889Z,35.49
2023-03-29T18:21:58.009Z,35.42
2023-03-29T18:25:58.170Z,35.44
2023-03-29T18:29:58.320Z,35.40
2023-03-29T18:33:58.531Z,35.37
2023-03-29T18:37:58.711Z,35.37
2023-03-29T18:41:58.882Z,35.33
2023-03-29T18:45:59.093Z,35.40
2023-03-29T18:49:59.227Z,35.27
2023-03-29T18:53:59.405Z,35.24
2023-03-29T18:57:59.610Z,35.22
2023-03-29T19:01:59.768Z,35.24
2023-03-29T19:05:59.965Z,35.24
2023-03-29T19:10:00.127Z,35.27
2023-03-29T19:14:00.298Z,35.22
2023-03-29T19:18:00.559Z,35.15
2023-03-29T19:22:00.928Z,35.15
2023-03-29T19:26:00.897Z,35.17
2023-03-29T19:30:01.081Z,35.14
2023-03-29T19:34:01.191Z,35.15
2023-03-29T19:38:01.390Z,35.10
2023-03-29T19:42:01.591Z,35.10
2023-03-29T19:46:02.151Z,35.10
2023-03-29T19:50:01.995Z,35.21
2023-03-29T19:54:02.183Z,35.14
2023-03-29T19:58:02.411Z,35.08
2023-03-29T20:02:02.676Z,35.08
2023-03-29T20:06:02.856Z,35.03
2023-03-29T20:10:03.030Z,35.03
2023-03-29T20:14:03.282Z,35.02
2023-03-29T20:18:03.578Z,34.99
2023-03-29T20:22:03.717Z,35.01
2023-03-29T20:26:03.909Z,35.02
2023-03-29T20:30:04.124Z,34.98
2023-03-29T20:34:04.370Z,35.02
2023-03-29T20:38:04.560Z,34.98
2023-03-29T20:42:04.809Z,34.99
2023-03-29T20:46:05.020Z,34.97
2023-03-29T20:50:05.217Z,34.96
2023-03-29T20:54:05.211Z,34.94
2023-03-29T20:58:05.159Z,34.92
2023-03-29T21:02:05.127Z,34.95
2023-03-29T21:06:05.060Z,34.90
2023-03-29T21:10:05.035Z,34.98
2023-03-29T21:14:04.978Z,34.90
2023-03-29T21:18:05.002Z,34.89
2023-03-29T21:22:04.924Z,34.91
2023-03-29T21:26:04.889Z,34.85
2023-03-29T21:30:04.843Z,34.87
2023-03-29T21:34:05.027Z,34.84
2023-03-29T21:38:04.995Z,34.88
2023-03-29T21:42:04.917Z,34.86
2023-03-29T21:46:04.890Z,34.85
2023-03-29T21:50:04.851Z,34.81
2023-03-29T21:54:04.812Z,34.84
2023-03-29T21:58:04.825Z,34.84
2023-03-29T22:02:04.761Z,34.80
2023-03-29T22:06:04.741Z,34.79
2023-03-29T22:10:04.682Z,34.82
2023-03-29T22:14:04.679Z,34.84
2023-03-29T22:18:05.035Z,34.82
2023-03-29T22:22:04.893Z,34.83
2023-03-29T22:26:04.880Z,34.81
2023-03-29T22:30:04.813Z,34.82
2023-03-29T22:34:04.793Z,34.81
2023-03-29T22:38:04.722Z,34.86
2023-03-29T22:42:04.651Z,34.81
2023-03-29T22:46:04.708Z,34.81
2023-03-29T22:50:04.627Z,34.76
2023-03-29T22:54:04.571Z,34.76
2023-03-29T22:58:04.601Z,34.76
2023-03-29T23:02:04.587Z,34.77
2023-03-29T23:06:04.566Z,34.76
2023-03-29T23:10:04.483Z,34.81
2023-03-29T23:14:04.472Z,34.78
2023-03-29T23:18:04.459Z,34.74
2023-03-29T23:22:04.387Z,34.76
2023-03-29T23:26:04.347Z,34.81
2023-03-29T23:30:04.350Z,34.78
2023-03-29T23:34:04.303Z,34.78
2023-03-29T23:38:04.308Z,34.71
2023-03-29T23:42:04.274Z,34.78
2023-03-29T23:46:04.228Z,34.72
2023-03-29T23:50:04.175Z,34.73
2023-03-29T23:54:04.129Z,34.78
2023-03-29T23:58:04.135Z,34.74
